This is the latest recevied weather packets stored in our database for station/object NA9VY-8. If no packets are shown the sender has not sent any weather packets the latest 10 day(s).
| Time | Temp. | Humidity | Pressure | Rain* | Wind** | Luminosity | Snow |
|---|---|---|---|---|---|---|---|
| 1777834369 | 16.67° C | 43% | 1020.8 hPa | 0 mm | - | 643 W/m² | - |
| 1777834064 | 16.11° C | 46% | 1020.8 hPa | 0 mm | - | 635 W/m² | - |
| 1777833761 | 16.67° C | 48% | 1021.3 hPa | 0 mm | - | 641 W/m² | - |
| 1777833457 | 16.67° C | 46% | 1021.5 hPa | 0 mm | - | 675 W/m² | - |
| 1777833155 | 16.11° C | 47% | 1021.2 hPa | 0 mm | - | 608 W/m² | - |
| 1777832852 | 16.67° C | 45% | 1021.6 hPa | 0 mm | - | 608 W/m² | - |
| 1777832551 | 15.56° C | 45% | 1021.6 hPa | 0 mm | - | 652 W/m² | - |
| 1777832247 | 16.67° C | 43% | 1021.9 hPa | 0 mm | - | 420 W/m² | - |
| 1777831944 | 16.11° C | 42% | 1021.8 hPa | 0 mm | - | 575 W/m² | - |
| 1777831640 | 16.11° C | 41% | 1022.1 hPa | 0 mm | - | 133 W/m² | - |
| 1777831339 | 16.11° C | 44% | 1022.3 hPa | 0 mm | - | 84 W/m² | - |
| 1777831035 | 15.56° C | 42% | 1022.5 hPa | 0 mm | - | 83 W/m² | - |
| 1777830734 | 16.11° C | 42% | 1022.6 hPa | 0 mm | - | 79 W/m² | - |
| 1777830429 | 16.11° C | 41% | 1022.6 hPa | 0 mm | - | 78 W/m² | - |
| 1777830127 | 16.11° C | 42% | 1022.6 hPa | 0 mm | - | 79 W/m² | - |
| 1777829822 | 15.56° C | 41% | 1022.7 hPa | 0 mm | - | 299 W/m² | - |
| 1777829518 | 15.56° C | 45% | 1022.7 hPa | 0 mm | - | 119 W/m² | - |
| 1777829215 | 15.56° C | 46% | 1022.7 hPa | 0 mm | - | 242 W/m² | - |
| 1777828913 | 15° C | 42% | 1022.7 hPa | 0 mm | - | 286 W/m² | - |
| 1777828609 | 16.11° C | 42% | 1023.1 hPa | 0 mm | - | 105 W/m² | - |
| 1777828307 | 15° C | 39% | 1023.3 hPa | 0 mm | - | 524 W/m² | - |
| 1777828003 | 15.56° C | 40% | 1023.5 hPa | 0 mm | - | 116 W/m² | - |
| 1777827700 | 15.56° C | 43% | 1023.3 hPa | 0 mm | - | 99 W/m² | - |
| 1777827397 | 15.56° C | 43% | 1023.5 hPa | 0 mm | - | 383 W/m² | - |
| 1777827093 | 15° C | 45% | 1023.8 hPa | 0 mm | - | 372 W/m² | - |
* Rain latest hour (hover to see other rain measurements)
** Current wind speed in m/s (hover to see current wind gust speed)